createdAt,value
2017-09-30T00:00:53.112Z,100656.48
2017-09-30T00:03:20.591Z,100651.69
2017-09-30T00:05:48.062Z,100652.84
2017-09-30T00:08:15.543Z,100658.38
2017-09-30T00:10:43.010Z,100647.97
2017-09-30T00:13:10.517Z,100655.55
2017-09-30T00:15:37.984Z,100656.18
2017-09-30T00:18:05.533Z,100661.30
2017-09-30T00:20:32.997Z,100654.83
2017-09-30T00:23:00.565Z,100662.08
2017-09-30T00:25:28.111Z,100659.58
2017-09-30T00:27:55.593Z,100660.92
2017-09-30T00:30:23.141Z,100656.84
2017-09-30T00:32:50.691Z,100652.55
2017-09-30T00:35:18.162Z,100656.19
2017-09-30T00:37:45.710Z,100656.84
2017-09-30T00:40:13.192Z,100654.28
2017-09-30T00:42:40.648Z,100656.18
2017-09-30T00:45:08.173Z,100654.64
2017-09-30T00:47:35.636Z,100652.09
2017-09-30T00:50:03.192Z,100653.24
2017-09-30T00:52:30.655Z,100648.20
2017-09-30T00:54:58.149Z,100657.23
2017-09-30T00:57:25.666Z,100651.55
2017-09-30T00:59:53.229Z,100648.97
2017-09-30T01:02:20.689Z,100643.55
2017-09-30T01:04:48.159Z,100640.43
2017-09-30T01:07:15.635Z,100633.80
2017-09-30T01:09:43.113Z,100628.99
2017-09-30T01:12:10.594Z,100622.00
2017-09-30T01:14:38.107Z,100624.95
2017-09-30T01:17:05.606Z,100617.29
2017-09-30T01:19:33.075Z,100623.83
2017-09-30T01:22:00.569Z,100618.40
2017-09-30T01:24:28.043Z,100614.66
2017-09-30T01:26:55.541Z,100626.66
2017-09-30T01:29:23.012Z,100621.38
2017-09-30T01:31:50.507Z,100623.16
2017-09-30T01:34:17.963Z,100618.52
2017-09-30T01:36:45.449Z,100619.59
2017-09-30T01:39:12.927Z,100616.67
2017-09-30T01:41:40.425Z,100612.18
2017-09-30T01:44:07.898Z,100615.50
2017-09-30T01:46:35.368Z,100615.39
2017-09-30T01:49:02.856Z,100615.02
2017-09-30T01:51:30.414Z,100613.73
2017-09-30T01:53:57.910Z,100615.47
2017-09-30T01:56:25.393Z,100610.14
2017-09-30T01:58:52.888Z,100611.77
2017-09-30T02:01:20.352Z,100607.86
2017-09-30T02:03:47.868Z,100602.39
2017-09-30T02:06:15.328Z,100599.97
2017-09-30T02:08:42.921Z,100595.62
2017-09-30T02:11:10.499Z,100594.67
2017-09-30T02:13:37.977Z,100599.98
2017-09-30T02:16:05.457Z,100597.86
2017-09-30T02:18:32.963Z,100596.30
2017-09-30T02:21:00.501Z,100587.81
2017-09-30T02:23:28.012Z,100581.58
2017-09-30T02:25:55.479Z,100584.72
2017-09-30T02:28:22.968Z,100576.40
2017-09-30T02:30:50.549Z,100582.58
2017-09-30T02:33:18.020Z,100584.72
2017-09-30T02:35:45.866Z,100589.20
2017-09-30T02:38:13.429Z,100587.60
2017-09-30T02:40:40.989Z,100589.30
2017-09-30T02:43:08.535Z,100590.33
2017-09-30T02:45:36.105Z,100586.66
2017-09-30T02:48:03.560Z,100582.94
2017-09-30T02:50:31.113Z,100579.13
2017-09-30T02:52:58.692Z,100585.35
2017-09-30T02:55:26.180Z,100581.69
2017-09-30T02:57:53.649Z,100570.67
2017-09-30T03:00:21.139Z,100568.53
2017-09-30T03:02:48.595Z,100561.88
2017-09-30T03:05:16.104Z,100555.16
2017-09-30T03:07:43.575Z,100569.44
2017-09-30T03:10:11.080Z,100560.91
2017-09-30T03:12:38.551Z,100554.37
2017-09-30T03:15:06.093Z,100543.50
2017-09-30T03:17:33.646Z,100545.31
2017-09-30T03:20:01.199Z,100542.22
2017-09-30T03:22:28.773Z,100532.53
2017-09-30T03:24:56.246Z,100523.94
2017-09-30T03:27:23.740Z,100522.05
2017-09-30T03:29:51.210Z,100517.86
2017-09-30T03:32:18.701Z,100515.85
2017-09-30T03:34:46.162Z,100518.36
2017-09-30T03:37:13.635Z,100533.62
2017-09-30T03:39:41.088Z,100537.88
2017-09-30T03:42:08.629Z,100530.78
2017-09-30T03:44:36.093Z,100529.79
2017-09-30T03:47:03.580Z,100530.45
2017-09-30T03:49:31.039Z,100534.02
2017-09-30T03:51:58.512Z,100528.93
2017-09-30T03:54:25.976Z,100525.53
2017-09-30T03:56:53.460Z,100526.44
2017-09-30T03:59:20.929Z,100526.07
2017-09-30T04:01:48.401Z,100527.00
2017-09-30T04:04:15.889Z,100522.45
2017-09-30T04:06:43.384Z,100514.67
2017-09-30T04:09:10.894Z,100508.27
2017-09-30T04:11:38.361Z,100502.73
2017-09-30T04:14:05.841Z,100506.17
2017-09-30T04:16:33.331Z,100511.81
2017-09-30T04:19:00.815Z,100509.03
2017-09-30T04:21:28.346Z,100513.00
2017-09-30T04:23:55.901Z,100510.77
2017-09-30T04:26:23.457Z,100509.47
2017-09-30T04:28:51.133Z,100510.26
2017-09-30T04:31:18.612Z,100503.56
2017-09-30T04:33:46.238Z,100499.14
2017-09-30T04:36:13.700Z,100500.16
2017-09-30T04:38:41.171Z,100499.78
2017-09-30T04:41:08.634Z,100499.08
2017-09-30T04:43:36.145Z,100490.63
2017-09-30T04:46:03.612Z,100480.38
2017-09-30T04:48:31.181Z,100480.84
2017-09-30T04:50:58.738Z,100475.44
2017-09-30T04:53:26.209Z,100464.91
2017-09-30T04:55:53.754Z,100462.50
2017-09-30T04:58:21.207Z,100460.43
2017-09-30T05:00:48.692Z,100451.53
2017-09-30T05:03:16.214Z,100450.27
2017-09-30T05:05:43.893Z,100452.25
2017-09-30T05:08:11.441Z,100444.10
2017-09-30T05:10:38.932Z,100443.20
2017-09-30T05:13:06.449Z,100440.20
2017-09-30T05:15:33.909Z,100435.23
2017-09-30T05:18:01.402Z,100432.85
2017-09-30T05:20:28.869Z,100434.04
2017-09-30T05:22:56.347Z,100439.61
2017-09-30T05:25:23.820Z,100444.79
2017-09-30T05:27:51.318Z,100442.00
2017-09-30T05:30:18.777Z,100453.18
2017-09-30T05:32:46.302Z,100461.44
2017-09-30T05:35:13.779Z,100475.44
2017-09-30T05:37:41.331Z,100477.32
2017-09-30T05:40:08.795Z,100464.72
2017-09-30T05:42:36.288Z,100465.23
2017-09-30T05:45:03.795Z,100467.86
2017-09-30T05:47:31.389Z,100466.22
2017-09-30T05:49:58.852Z,100463.98
2017-09-30T05:52:26.419Z,100469.09
2017-09-30T05:54:53.931Z,100472.63
2017-09-30T05:57:21.404Z,100468.97
2017-09-30T05:59:48.899Z,100474.78
2017-09-30T06:02:16.367Z,100471.56
2017-09-30T06:04:43.965Z,100471.59
2017-09-30T06:07:11.528Z,100466.92
2017-09-30T06:09:39.023Z,100469.93
2017-09-30T06:12:06.506Z,100466.31
2017-09-30T06:14:33.991Z,100471.07
2017-09-30T06:17:01.448Z,100469.16
2017-09-30T06:19:29.213Z,100474.13
2017-09-30T06:21:56.689Z,100479.41
2017-09-30T06:24:24.223Z,100484.20
2017-09-30T06:26:51.716Z,100487.96
2017-09-30T06:29:19.193Z,100485.98
2017-09-30T06:31:46.695Z,100482.33
2017-09-30T06:34:14.163Z,100482.16
2017-09-30T06:36:41.659Z,100479.80
2017-09-30T06:39:09.172Z,100485.59
2017-09-30T06:41:36.667Z,100484.52
2017-09-30T06:44:04.129Z,100477.63
2017-09-30T06:46:31.616Z,100481.16
2017-09-30T06:48:59.101Z,100481.16
2017-09-30T06:51:26.605Z,100483.30
2017-09-30T06:53:54.068Z,100479.23
2017-09-30T06:56:21.547Z,100487.02
2017-09-30T06:58:49.037Z,100481.22
2017-09-30T07:01:16.499Z,100478.73
2017-09-30T07:03:43.980Z,100480.64
2017-09-30T07:06:11.445Z,100481.16
2017-09-30T07:08:38.961Z,100473.94
2017-09-30T07:11:06.415Z,100477.92
2017-09-30T07:13:33.965Z,100475.05
2017-09-30T07:16:01.424Z,100473.30
2017-09-30T07:18:28.909Z,100468.30
2017-09-30T07:20:56.408Z,100470.76
2017-09-30T07:23:23.902Z,100468.08
2017-09-30T07:25:51.379Z,100473.05
2017-09-30T07:28:18.908Z,100478.16
2017-09-30T07:30:46.371Z,100473.79
2017-09-30T07:33:13.855Z,100467.52
2017-09-30T07:35:41.341Z,100460.55
2017-09-30T07:38:08.807Z,100456.06
2017-09-30T07:40:36.339Z,100456.53
2017-09-30T07:43:03.860Z,100449.68
2017-09-30T07:45:31.343Z,100441.70
2017-09-30T07:47:58.799Z,100444.96
2017-09-30T07:50:26.279Z,100447.53
2017-09-30T07:52:53.731Z,100447.84
2017-09-30T07:55:21.252Z,100449.58
2017-09-30T07:57:48.728Z,100441.73
2017-09-30T08:00:16.262Z,100430.86
2017-09-30T08:02:43.825Z,100423.00
2017-09-30T08:05:11.381Z,100423.94
2017-09-30T08:07:38.927Z,100428.78
2017-09-30T08:10:07.108Z,100425.44
2017-09-30T08:12:34.597Z,100421.03
2017-09-30T08:15:02.048Z,100418.70
2017-09-30T08:17:29.562Z,100411.77
2017-09-30T08:19:57.037Z,100421.38
2017-09-30T08:22:24.529Z,100410.17
2017-09-30T08:24:51.993Z,100411.66
2017-09-30T08:27:19.489Z,100415.12
2017-09-30T08:29:47.023Z,100405.80
2017-09-30T08:32:14.499Z,100417.11
2017-09-30T08:34:41.955Z,100411.42
2017-09-30T08:37:09.490Z,100409.92
2017-09-30T08:39:36.962Z,100409.59
2017-09-30T08:42:04.458Z,100405.27
2017-09-30T08:44:31.953Z,100401.94
2017-09-30T08:46:59.412Z,100400.23
2017-09-30T08:49:26.898Z,100394.48
2017-09-30T08:51:54.369Z,100398.06
2017-09-30T08:54:21.851Z,100396.78
2017-09-30T08:56:49.387Z,100397.63
2017-09-30T08:59:16.873Z,100400.30
2017-09-30T09:01:44.341Z,100399.16
2017-09-30T09:04:11.818Z,100395.25
2017-09-30T09:06:39.319Z,100385.11
2017-09-30T09:09:06.859Z,100383.34
2017-09-30T09:11:34.316Z,100388.84
2017-09-30T09:14:01.804Z,100376.59
2017-09-30T09:16:29.269Z,100379.00
2017-09-30T09:18:56.770Z,100381.62
2017-09-30T09:21:24.251Z,100378.82
2017-09-30T09:23:51.820Z,100372.95
2017-09-30T09:26:19.299Z,100370.30
2017-09-30T09:28:46.834Z,100364.53
2017-09-30T09:31:14.321Z,100365.12
2017-09-30T09:33:41.780Z,100369.30
2017-09-30T09:36:09.274Z,100367.61
2017-09-30T09:38:36.731Z,100363.45
2017-09-30T09:41:04.208Z,100364.89
2017-09-30T09:43:31.690Z,100362.61
2017-09-30T09:45:59.233Z,100360.78
2017-09-30T09:48:26.792Z,100352.34
2017-09-30T09:50:54.256Z,100350.44
2017-09-30T09:53:21.911Z,100343.23
2017-09-30T09:55:49.382Z,100337.05
2017-09-30T09:58:16.859Z,100327.01
2017-09-30T10:00:44.320Z,100325.77
2017-09-30T10:03:11.804Z,100321.20
2017-09-30T10:05:39.264Z,100322.89
2017-09-30T10:08:06.866Z,100319.88
2017-09-30T10:10:34.324Z,100321.71
2017-09-30T10:13:01.983Z,100323.38
2017-09-30T10:15:29.452Z,100315.47
2017-09-30T10:17:56.915Z,100311.42
2017-09-30T10:20:24.397Z,100317.40
2017-09-30T10:22:51.894Z,100316.01
2017-09-30T10:25:19.372Z,100317.52
2017-09-30T10:27:46.929Z,100314.40
2017-09-30T10:30:14.421Z,100318.58
2017-09-30T10:32:41.895Z,100308.90
2017-09-30T10:37:36.127Z,100314.94
2017-09-30T10:40:03.612Z,100312.78
2017-09-30T10:42:31.075Z,100306.29
2017-09-30T10:44:58.573Z,100304.30
2017-09-30T10:47:26.061Z,100308.36
2017-09-30T10:49:53.552Z,100302.03
2017-09-30T10:52:21.007Z,100301.92
2017-09-30T10:54:48.459Z,100301.84
2017-09-30T10:57:15.948Z,100304.91
2017-09-30T10:59:43.403Z,100301.40
2017-09-30T11:02:10.894Z,100309.63
2017-09-30T11:04:38.352Z,100314.42
2017-09-30T11:07:05.840Z,100318.27
2017-09-30T11:09:33.295Z,100318.44
2017-09-30T11:12:00.840Z,100318.09
2017-09-30T11:14:28.302Z,100310.45
2017-09-30T11:16:55.771Z,100309.44
2017-09-30T11:19:23.235Z,100306.85
2017-09-30T11:21:50.747Z,100306.22
2017-09-30T11:24:18.200Z,100303.84
2017-09-30T11:26:45.768Z,100299.58
2017-09-30T11:29:13.222Z,100294.81
2017-09-30T11:31:40.711Z,100294.33
2017-09-30T11:34:08.177Z,100294.12
2017-09-30T11:36:35.638Z,100289.46
2017-09-30T11:39:03.124Z,100291.51
2017-09-30T11:41:30.585Z,100281.78
2017-09-30T11:43:58.174Z,100292.83
2017-09-30T11:46:25.737Z,100287.77
2017-09-30T11:48:53.284Z,100289.77
2017-09-30T11:51:20.753Z,100291.13
2017-09-30T11:53:48.246Z,100289.67
2017-09-30T11:56:15.716Z,100293.62
2017-09-30T11:58:43.221Z,100286.42
2017-09-30T12:01:10.699Z,100287.08
2017-09-30T12:03:38.183Z,100285.33
2017-09-30T12:06:05.708Z,100267.59
2017-09-30T12:08:33.257Z,100267.05
2017-09-30T12:11:00.710Z,100256.95
2017-09-30T12:13:28.172Z,100241.30
2017-09-30T12:15:55.665Z,100238.38
2017-09-30T12:18:23.137Z,100232.79
2017-09-30T12:20:50.615Z,100238.11
2017-09-30T12:23:18.080Z,100242.05
2017-09-30T12:25:45.572Z,100249.56
2017-09-30T12:28:13.047Z,100251.92
2017-09-30T12:30:40.523Z,100246.79
2017-09-30T12:33:07.980Z,100243.84
2017-09-30T12:35:35.581Z,100242.42
2017-09-30T12:38:03.046Z,100244.23
2017-09-30T12:40:30.595Z,100244.93
2017-09-30T12:42:58.072Z,100247.22
2017-09-30T12:45:25.569Z,100245.78
2017-09-30T12:47:53.023Z,100251.19
2017-09-30T12:50:20.515Z,100257.48
2017-09-30T12:52:48.032Z,100256.00
2017-09-30T12:55:15.547Z,100257.06
2017-09-30T12:57:43.083Z,100274.03
2017-09-30T13:00:10.548Z,100274.44
2017-09-30T13:02:38.099Z,100288.23
2017-09-30T13:05:05.539Z,100304.13
2017-09-30T13:07:33.029Z,100314.59
2017-09-30T13:10:00.587Z,100336.31
2017-09-30T13:12:28.073Z,100344.67
2017-09-30T13:14:55.528Z,100351.61
2017-09-30T13:17:23.047Z,100352.18
2017-09-30T13:19:50.613Z,100366.48
2017-09-30T13:22:18.101Z,100358.00
2017-09-30T13:24:45.576Z,100376.94
2017-09-30T13:27:13.077Z,100383.22
2017-09-30T13:29:40.524Z,100391.64
2017-09-30T13:32:07.985Z,100398.80
2017-09-30T13:34:35.463Z,100404.02
2017-09-30T13:37:02.931Z,100405.80
2017-09-30T13:39:30.433Z,100408.88
2017-09-30T13:41:57.880Z,100412.05
2017-09-30T13:44:25.349Z,100417.02
2017-09-30T13:46:52.830Z,100418.92
2017-09-30T13:49:20.309Z,100425.86
2017-09-30T13:51:47.766Z,100433.64
2017-09-30T13:54:15.239Z,100430.13
2017-09-30T13:56:42.700Z,100425.31
2017-09-30T13:59:10.211Z,100431.70
2017-09-30T14:01:37.810Z,100436.80
2017-09-30T14:04:05.332Z,100448.03
2017-09-30T14:06:32.789Z,100449.64
2017-09-30T14:09:00.254Z,100451.91
2017-09-30T14:11:27.733Z,100464.75
2017-09-30T14:13:55.275Z,100469.04
2017-09-30T14:16:22.748Z,100466.16
2017-09-30T14:18:50.203Z,100463.13
2017-09-30T14:21:17.750Z,100470.91
2017-09-30T14:23:45.214Z,100476.59
2017-09-30T14:26:12.713Z,100471.28
2017-09-30T14:28:40.165Z,100471.16
2017-09-30T14:31:07.668Z,100474.27
2017-09-30T14:33:35.239Z,100477.42
2017-09-30T14:36:02.731Z,100478.06
2017-09-30T14:38:30.203Z,100480.59
2017-09-30T14:40:57.676Z,100486.30
2017-09-30T14:43:25.138Z,100484.77
2017-09-30T14:45:52.618Z,100481.07
2017-09-30T14:48:20.077Z,100482.03
2017-09-30T14:50:47.641Z,100486.16
2017-09-30T14:53:15.144Z,100486.77
2017-09-30T14:55:42.642Z,100488.80
2017-09-30T14:58:10.120Z,100484.95
2017-09-30T15:00:37.568Z,100490.23
2017-09-30T15:03:05.044Z,100488.22
2017-09-30T15:05:32.501Z,100494.86
2017-09-30T15:07:59.984Z,100508.33
2017-09-30T15:10:27.435Z,100521.20
2017-09-30T15:12:54.923Z,100523.67
2017-09-30T15:15:22.403Z,100521.99
2017-09-30T15:17:49.881Z,100519.19
2017-09-30T15:20:17.336Z,100514.73
2017-09-30T15:22:44.827Z,100507.70
2017-09-30T15:25:12.288Z,100510.78
2017-09-30T15:27:39.784Z,100522.00
2017-09-30T15:30:07.237Z,100528.94
2017-09-30T15:32:34.688Z,100517.09
2017-09-30T15:35:02.289Z,100516.14
2017-09-30T15:37:29.763Z,100517.58
2017-09-30T15:39:57.257Z,100507.16
2017-09-30T15:42:24.835Z,100513.69
2017-09-30T15:44:52.364Z,100514.80
2017-09-30T15:47:19.848Z,100522.23
2017-09-30T15:49:47.405Z,100518.67
2017-09-30T15:52:14.898Z,100516.95
2017-09-30T15:54:42.426Z,100518.92
2017-09-30T15:57:09.980Z,100525.23
2017-09-30T15:59:37.480Z,100519.58
2017-09-30T16:02:04.934Z,100523.54
2017-09-30T16:04:32.454Z,100531.00
2017-09-30T16:06:59.907Z,100517.77
2017-09-30T16:09:27.497Z,100512.27
2017-09-30T16:11:54.963Z,100513.34
2017-09-30T16:14:22.422Z,100516.00
2017-09-30T16:16:49.909Z,100506.95
2017-09-30T16:19:17.383Z,100507.58
2017-09-30T16:21:44.953Z,100492.12
2017-09-30T16:24:12.413Z,100498.00
2017-09-30T16:26:39.888Z,100507.02
2017-09-30T16:29:07.340Z,100516.80
2017-09-30T16:31:34.808Z,100524.55
2017-09-30T16:34:02.259Z,100537.05
2017-09-30T16:36:29.807Z,100531.52
2017-09-30T16:38:57.265Z,100531.89
2017-09-30T16:41:24.787Z,100522.45
2017-09-30T16:43:52.369Z,100529.48
2017-09-30T16:46:19.833Z,100520.28
2017-09-30T16:48:47.303Z,100523.88
2017-09-30T16:51:14.832Z,100521.44
2017-09-30T16:53:42.312Z,100520.79
2017-09-30T16:56:09.781Z,100524.08
2017-09-30T16:58:37.276Z,100521.01
2017-09-30T17:01:04.742Z,100523.11
2017-09-30T17:03:32.214Z,100527.92
2017-09-30T17:05:59.813Z,100531.86
2017-09-30T17:08:27.334Z,100540.03
2017-09-30T17:10:54.787Z,100549.27
2017-09-30T17:13:22.347Z,100548.79
2017-09-30T17:15:49.795Z,100554.35
2017-09-30T17:18:17.264Z,100559.33
2017-09-30T17:20:44.820Z,100559.86
2017-09-30T17:23:12.385Z,100567.30
2017-09-30T17:25:39.869Z,100567.70
2017-09-30T17:28:07.397Z,100565.61
2017-09-30T17:30:34.880Z,100563.22
2017-09-30T17:33:02.413Z,100568.18
2017-09-30T17:35:29.889Z,100579.72
2017-09-30T17:37:57.409Z,100585.14
2017-09-30T17:40:24.888Z,100593.88
2017-09-30T17:42:52.352Z,100594.94
2017-09-30T17:45:19.852Z,100604.65
2017-09-30T17:47:47.316Z,100615.37
2017-09-30T17:50:14.807Z,100616.78
2017-09-30T17:52:42.285Z,100619.53
2017-09-30T17:55:09.733Z,100623.56
2017-09-30T17:57:37.213Z,100622.97
2017-09-30T18:00:04.679Z,100634.56
2017-09-30T18:02:32.157Z,100640.05
2017-09-30T18:04:59.653Z,100649.42
2017-09-30T18:07:27.140Z,100651.64
2017-09-30T18:09:54.663Z,100657.34
2017-09-30T18:12:22.130Z,100656.49
2017-09-30T18:14:49.688Z,100670.02
2017-09-30T18:17:17.160Z,100673.17
2017-09-30T18:19:44.701Z,100673.62
2017-09-30T18:22:12.262Z,100673.49
2017-09-30T18:24:39.745Z,100679.17
2017-09-30T18:27:07.220Z,100682.55
2017-09-30T18:29:34.697Z,100683.56
2017-09-30T18:32:03.209Z,100685.09
2017-09-30T18:34:30.755Z,100680.95
2017-09-30T18:36:58.205Z,100698.11
2017-09-30T18:39:25.784Z,100693.22
2017-09-30T18:41:53.240Z,100694.70
2017-09-30T18:44:20.801Z,100692.52
2017-09-30T18:46:48.252Z,100699.45
2017-09-30T18:49:15.717Z,100707.63
2017-09-30T18:51:43.190Z,100709.16
2017-09-30T18:54:10.635Z,100718.53
2017-09-30T18:56:38.111Z,100725.85
2017-09-30T18:59:05.628Z,100728.69
2017-09-30T19:01:33.112Z,100731.86
2017-09-30T19:04:00.574Z,100722.81
2017-09-30T19:06:28.108Z,100728.21
2017-09-30T19:08:55.667Z,100730.41
2017-09-30T19:11:23.133Z,100730.62
2017-09-30T19:13:50.681Z,100737.79
2017-09-30T19:16:18.159Z,100734.48
2017-09-30T19:18:45.698Z,100743.91
2017-09-30T19:21:13.164Z,100735.67
2017-09-30T19:23:40.641Z,100739.08
2017-09-30T19:26:08.174Z,100738.95
2017-09-30T19:28:35.653Z,100746.70
2017-09-30T19:31:03.107Z,100747.76
2017-09-30T19:33:30.654Z,100757.22
2017-09-30T19:35:58.109Z,100754.42
2017-09-30T19:38:25.579Z,100754.53
2017-09-30T19:40:53.046Z,100758.73
2017-09-30T19:43:20.590Z,100758.62
2017-09-30T19:45:48.048Z,100757.19
2017-09-30T19:48:15.590Z,100754.42
2017-09-30T19:50:43.055Z,100762.57
2017-09-30T19:53:10.537Z,100765.69
2017-09-30T19:55:37.988Z,100775.33
2017-09-30T19:58:05.443Z,100778.66
2017-09-30T20:00:32.926Z,100779.13
2017-09-30T20:03:00.382Z,100780.17
2017-09-30T20:05:27.868Z,100782.77
2017-09-30T20:07:55.337Z,100784.93
2017-09-30T20:10:22.899Z,100781.73
2017-09-30T20:12:50.478Z,100773.69
2017-09-30T20:15:17.958Z,100774.17
2017-09-30T20:17:45.415Z,100782.95
2017-09-30T20:20:12.965Z,100778.70
2017-09-30T20:22:40.497Z,100792.53
2017-09-30T20:25:08.059Z,100791.06
2017-09-30T20:27:35.610Z,100797.05
2017-09-30T20:30:03.057Z,100803.92
2017-09-30T20:32:30.625Z,100806.50
2017-09-30T20:34:58.104Z,100809.61
2017-09-30T20:37:25.593Z,100808.91
2017-09-30T20:39:53.100Z,100809.11
2017-09-30T20:42:20.654Z,100814.23
2017-09-30T20:44:48.103Z,100818.80
2017-09-30T20:47:15.577Z,100815.97
2017-09-30T20:49:43.125Z,100815.61
2017-09-30T20:52:10.590Z,100818.57
2017-09-30T20:54:38.134Z,100817.94
2017-09-30T20:57:05.613Z,100820.09
2017-09-30T20:59:33.063Z,100819.94
2017-09-30T21:02:00.613Z,100821.80
2017-09-30T21:04:28.059Z,100817.93
2017-09-30T21:06:55.651Z,100829.64
2017-09-30T21:09:23.113Z,100829.14
2017-09-30T21:11:50.648Z,100828.56
2017-09-30T21:14:18.108Z,100826.98
2017-09-30T21:16:45.652Z,100833.33
2017-09-30T21:19:13.099Z,100826.16
2017-09-30T21:21:40.553Z,100828.05
2017-09-30T21:24:08.028Z,100827.41
2017-09-30T21:26:35.488Z,100824.16
2017-09-30T21:29:02.974Z,100829.20
2017-09-30T21:31:30.427Z,100833.22
2017-09-30T21:33:57.915Z,100834.17
2017-09-30T21:36:25.406Z,100832.92
2017-09-30T21:38:52.904Z,100833.69
2017-09-30T21:41:20.441Z,100831.61
2017-09-30T21:43:47.926Z,100840.09
2017-09-30T21:46:15.386Z,100834.86
2017-09-30T21:48:42.892Z,100834.35
2017-09-30T21:51:10.465Z,100838.03
2017-09-30T21:53:37.926Z,100832.58
2017-09-30T21:56:05.467Z,100829.06
2017-09-30T21:58:32.935Z,100835.20
2017-09-30T22:01:00.394Z,100835.58
2017-09-30T22:03:27.866Z,100840.66
2017-09-30T22:05:55.381Z,100842.64
2017-09-30T22:08:22.851Z,100843.52
2017-09-30T22:10:50.319Z,100849.48
2017-09-30T22:13:17.807Z,100841.39
2017-09-30T22:15:45.285Z,100843.47
2017-09-30T22:18:12.743Z,100838.56
2017-09-30T22:20:40.235Z,100833.29
2017-09-30T22:23:07.704Z,100836.53
2017-09-30T22:25:35.188Z,100840.87
2017-09-30T22:28:02.686Z,100844.00
2017-09-30T22:30:30.174Z,100845.41
2017-09-30T22:32:57.729Z,100841.63
2017-09-30T22:35:25.209Z,100834.82
2017-09-30T22:37:52.697Z,100839.82
2017-09-30T22:40:20.177Z,100829.46
2017-09-30T22:42:47.633Z,100831.68
2017-09-30T22:45:15.084Z,100837.30
2017-09-30T22:47:42.577Z,100829.63
2017-09-30T22:50:10.109Z,100833.66
2017-09-30T22:52:37.582Z,100836.80
2017-09-30T22:55:05.028Z,100834.72
2017-09-30T22:57:32.595Z,100840.92
2017-09-30T23:00:00.054Z,100840.85
2017-09-30T23:02:27.544Z,100833.87
2017-09-30T23:04:55.066Z,100829.02
2017-09-30T23:07:22.530Z,100830.28
2017-09-30T23:09:49.995Z,100831.70
2017-09-30T23:12:17.540Z,100829.61
2017-09-30T23:14:45.098Z,100834.77
2017-09-30T23:17:12.578Z,100841.70
2017-09-30T23:19:40.112Z,100837.42
2017-09-30T23:22:07.568Z,100842.48
2017-09-30T23:24:35.041Z,100845.50
2017-09-30T23:27:02.584Z,100852.52
2017-09-30T23:29:30.155Z,100851.64
2017-09-30T23:31:57.656Z,100851.82
2017-09-30T23:34:25.120Z,100852.11
2017-09-30T23:36:52.597Z,100855.28
2017-09-30T23:39:20.077Z,100850.67
2017-09-30T23:41:47.555Z,100848.05
2017-09-30T23:44:15.052Z,100852.09
2017-09-30T23:46:42.539Z,100851.22
2017-09-30T23:49:10.012Z,100843.83
2017-09-30T23:51:37.469Z,100853.95
2017-09-30T23:54:05.024Z,100852.95
2017-09-30T23:56:32.515Z,100854.91
2017-09-30T23:58:59.980Z,100851.66
